createdAt,value
2019-06-07T00:01:49.265Z,84.44
2019-06-07T00:04:21.294Z,86.64
2019-06-07T00:06:50.011Z,87.10
2019-06-07T00:09:22.520Z,87.88
2019-06-07T00:11:50.567Z,87.44
2019-06-07T00:14:21.170Z,85.98
2019-06-07T00:16:52.000Z,86.19
2019-06-07T00:19:21.861Z,85.15
2019-06-07T00:22:16.527Z,85.56
2019-06-07T00:24:22.880Z,85.12
2019-06-07T00:26:58.969Z,85.06
2019-06-07T00:29:23.441Z,85.26
2019-06-07T00:31:52.989Z,84.98
2019-06-07T00:34:23.208Z,85.49
2019-06-07T00:36:53.545Z,85.51
2019-06-07T00:39:25.881Z,82.27
2019-06-07T00:41:54.065Z,82.36
2019-06-07T00:44:23.743Z,83.67
2019-06-07T00:46:54.077Z,80.26
2019-06-07T00:49:40.039Z,85.09
2019-06-07T00:51:54.631Z,86.02
2019-06-07T00:54:25.083Z,83.88
2019-06-07T00:56:54.729Z,86.87
2019-06-07T00:59:29.604Z,87.91
2019-06-07T01:01:56.522Z,86.86
2019-06-07T01:04:27.201Z,86.86
2019-06-07T01:06:56.669Z,85.32
2019-06-07T01:09:27.043Z,86.83
2019-06-07T01:11:56.418Z,85.97
2019-06-07T01:14:28.510Z,86.07
2019-06-07T01:17:22.208Z,85.92
2019-06-07T01:19:29.431Z,85.70
2019-06-07T01:21:58.979Z,85.50
2019-06-07T01:24:28.358Z,84.16
2019-06-07T01:26:57.775Z,84.65
2019-06-07T01:29:30.899Z,84.75
2019-06-07T01:31:59.315Z,84.23
2019-06-07T01:34:29.084Z,86.34
2019-06-07T01:36:59.563Z,86.73
2019-06-07T01:39:31.486Z,87.04
2019-06-07T01:42:00.188Z,84.78
2019-06-07T01:44:31.017Z,85.78
2019-06-07T01:47:01.984Z,86.67
2019-06-07T01:49:31.450Z,85.94
2019-06-07T01:52:00.913Z,84.70
2019-06-07T01:57:01.396Z,85.04
2019-06-07T01:59:31.834Z,84.59
2019-06-07T02:02:01.925Z,84.40
2019-06-07T02:04:33.161Z,85.06
2019-06-07T02:07:02.603Z,84.35
2019-06-07T02:09:32.378Z,84.74
2019-06-07T02:12:01.903Z,84.05
2019-06-07T02:14:33.373Z,83.60
2019-06-07T02:17:03.115Z,84.40
2019-06-07T02:19:33.390Z,84.52
2019-06-07T02:22:03.209Z,84.40
2019-06-07T02:24:35.791Z,77.03
2019-06-07T02:27:04.067Z,76.37
2019-06-07T02:29:33.861Z,80.67
2019-06-07T02:32:03.670Z,85.40
2019-06-07T02:34:38.638Z,85.40
2019-06-07T02:37:05.314Z,86.43
2019-06-07T02:39:40.494Z,87.31
2019-06-07T02:42:06.561Z,86.71
2019-06-07T02:44:39.440Z,85.90
2019-06-07T02:47:07.118Z,84.31
2019-06-07T02:49:41.179Z,82.93
2019-06-07T02:52:07.751Z,85.34
2019-06-07T02:54:40.362Z,85.06
2019-06-07T02:57:08.372Z,78.01
2019-06-07T03:00:03.728Z,79.77
2019-06-07T03:02:09.177Z,84.18
2019-06-07T03:04:42.357Z,84.86
2019-06-07T03:07:12.477Z,86.19
2019-06-07T03:09:42.924Z,84.95
2019-06-07T03:12:13.641Z,85.51
2019-06-07T03:14:44.492Z,85.59
2019-06-07T03:17:37.560Z,85.59
2019-06-07T03:20:08.173Z,85.33
2019-06-07T03:22:41.604Z,84.08
2019-06-07T03:25:12.574Z,83.88
2019-06-07T03:27:49.578Z,84.62
2019-06-07T03:32:48.037Z,84.65
2019-06-07T03:35:16.480Z,83.73
2019-06-07T03:37:45.900Z,84.65
2019-06-07T03:40:16.307Z,84.07
2019-06-07T03:42:45.706Z,83.71
2019-06-07T03:45:15.240Z,83.47
2019-06-07T03:47:44.620Z,83.91
2019-06-07T03:50:14.185Z,83.03
2019-06-07T03:52:43.577Z,80.28
2019-06-07T03:55:13.101Z,83.29
2019-06-07T04:00:14.009Z,83.77
2019-06-07T04:02:43.422Z,84.38
2019-06-07T04:05:13.139Z,83.35
2019-06-07T04:07:44.334Z,82.56
2019-06-07T04:10:13.615Z,82.40
2019-06-07T04:12:44.196Z,82.84
2019-06-07T04:15:14.372Z,83.57
2019-06-07T04:18:00.867Z,82.88
2019-06-07T04:20:14.890Z,82.69
2019-06-07T04:22:44.307Z,81.23
2019-06-07T04:25:14.126Z,80.78
2019-06-07T04:27:43.524Z,80.67
2019-06-07T04:30:13.700Z,81.02
2019-06-07T04:32:44.983Z,80.84
2019-06-07T04:35:15.700Z,81.32
2019-06-07T04:37:45.393Z,78.92
2019-06-07T04:40:14.876Z,79.69
2019-06-07T04:42:45.929Z,79.10
2019-06-07T04:45:33.146Z,78.44
2019-06-07T04:47:48.258Z,77.90
2019-06-07T04:50:18.440Z,76.34
2019-06-07T04:52:47.910Z,76.92
2019-06-07T04:55:17.289Z,77.62
2019-06-07T04:57:46.668Z,78.33
2019-06-07T05:00:49.682Z,79.16
2019-06-07T05:02:50.202Z,78.72
2019-06-07T05:05:19.588Z,78.34
2019-06-07T05:07:48.969Z,78.25
2019-06-07T05:10:18.363Z,77.77
2019-06-07T05:12:47.745Z,77.13
2019-06-07T05:15:17.216Z,79.94
2019-06-07T05:17:46.971Z,78.37
2019-06-07T05:20:17.337Z,76.69
2019-06-07T05:22:47.749Z,77.45
2019-06-07T05:25:17.918Z,77.00
2019-06-07T05:27:47.962Z,76.19
2019-06-07T05:33:04.121Z,73.58
2019-06-07T05:35:35.451Z,74.02
2019-06-07T05:38:05.677Z,72.63
2019-06-07T05:40:42.916Z,73.35
2019-06-07T05:43:24.791Z,71.86
2019-06-07T05:45:54.208Z,71.93
2019-06-07T05:48:24.073Z,72.94
2019-06-07T05:50:57.842Z,72.17
2019-06-07T05:53:25.396Z,72.69
2019-06-07T05:55:56.705Z,71.91
2019-06-07T05:58:26.097Z,70.48
2019-06-07T06:00:55.490Z,70.18
2019-06-07T06:03:24.878Z,67.45
2019-06-07T06:05:55.655Z,68.63
2019-06-07T06:08:25.540Z,68.16
2019-06-07T06:10:55.854Z,66.25
2019-06-07T06:13:25.239Z,65.56
2019-06-07T06:16:01.701Z,65.62
2019-06-07T06:18:25.797Z,69.54
2019-06-07T06:21:15.461Z,62.43
2019-06-07T06:23:26.342Z,62.85
2019-06-07T06:25:57.331Z,62.92
2019-06-07T06:28:27.323Z,63.27
2019-06-07T06:30:56.793Z,63.15
2019-06-07T06:33:33.415Z,62.95
2019-06-07T06:35:57.413Z,61.22
2019-06-07T06:38:26.815Z,61.39
2019-06-07T06:41:14.767Z,54.59
2019-06-07T06:43:27.435Z,59.85
2019-06-07T06:45:56.892Z,58.04
2019-06-07T06:48:26.296Z,54.41
2019-06-07T06:50:56.229Z,57.52
2019-06-07T06:53:26.551Z,61.61
2019-06-07T06:55:56.709Z,63.40
2019-06-07T06:58:27.075Z,54.15
2019-06-07T07:01:06.391Z,53.80
2019-06-07T07:03:56.493Z,57.78
2019-06-07T07:06:23.265Z,55.70
2019-06-07T07:08:30.816Z,53.98
2019-06-07T07:11:00.227Z,53.72
2019-06-07T07:13:29.570Z,54.71
2019-06-07T07:15:58.959Z,54.97
2019-06-07T07:18:29.010Z,55.13
2019-06-07T07:20:59.272Z,50.39
2019-06-07T07:23:29.403Z,48.64
2019-06-07T07:26:00.325Z,45.62
2019-06-07T07:28:29.992Z,48.34
2019-06-07T07:31:00.012Z,47.40
2019-06-07T07:34:20.877Z,47.37
2019-06-07T07:36:19.341Z,49.56
2019-06-07T07:38:31.687Z,47.91
2019-06-07T07:41:13.904Z,43.70
2019-06-07T07:43:32.309Z,46.50
2019-06-07T07:46:03.559Z,45.32
2019-06-07T07:48:32.849Z,46.98
2019-06-07T07:51:03.353Z,45.12
2019-06-07T07:53:48.374Z,42.84
2019-06-07T07:56:04.427Z,43.96
2019-06-07T07:58:33.923Z,41.00
2019-06-07T08:01:10.135Z,46.72
2019-06-07T08:03:34.444Z,45.83
2019-06-07T08:06:03.901Z,44.03
2019-06-07T08:08:33.665Z,46.62
2019-06-07T08:11:03.750Z,43.56
2019-06-07T08:13:33.853Z,43.19
2019-06-07T08:16:10.628Z,41.30
2019-06-07T08:18:34.450Z,39.88
2019-06-07T08:21:21.376Z,39.62
2019-06-07T08:23:35.264Z,40.66
2019-06-07T08:26:04.939Z,40.53
2019-06-07T08:28:35.289Z,41.18
2019-06-07T08:31:07.235Z,42.94
2019-06-07T08:33:35.777Z,41.97
2019-06-07T08:36:19.454Z,38.57
2019-06-07T08:38:47.583Z,39.63
2019-06-07T08:41:11.798Z,39.29
2019-06-07T08:43:39.072Z,38.99
2019-06-07T08:46:08.480Z,39.44
2019-06-07T08:48:37.853Z,39.41
2019-06-07T08:51:08.461Z,39.78
2019-06-07T08:53:38.233Z,41.80
2019-06-07T08:56:11.055Z,36.98
2019-06-07T08:58:38.289Z,35.37
2019-06-07T09:01:09.092Z,37.12
2019-06-07T09:03:38.841Z,35.92
2019-06-07T09:06:53.890Z,36.82
2019-06-07T09:08:39.935Z,37.79
2019-06-07T09:11:11.086Z,41.86
2019-06-07T09:13:39.754Z,40.23
2019-06-07T09:16:10.290Z,38.47
2019-06-07T09:18:44.477Z,37.04
2019-06-07T09:21:11.785Z,37.42
2019-06-07T09:23:41.137Z,37.37
2019-06-07T09:26:18.047Z,39.59
2019-06-07T09:28:42.423Z,39.45
2019-06-07T09:31:12.684Z,37.22
2019-06-07T09:33:42.372Z,34.40
2019-06-07T09:36:13.160Z,35.61
2019-06-07T09:38:45.103Z,34.33
2019-06-07T09:41:14.749Z,34.42
2019-06-07T09:44:01.898Z,34.06
2019-06-07T09:46:16.376Z,37.04
2019-06-07T09:49:14.243Z,39.88
2019-06-07T09:51:20.240Z,37.92
2019-06-07T09:53:47.579Z,37.17
2019-06-07T09:56:16.821Z,37.67
2019-06-07T09:58:52.566Z,38.94
2019-06-07T10:01:17.377Z,34.89
2019-06-07T10:03:46.756Z,35.80
2019-06-07T10:06:16.200Z,35.37
2019-06-07T10:11:16.738Z,36.03
2019-06-07T10:13:46.242Z,35.09
2019-06-07T10:16:15.624Z,35.71
2019-06-07T10:18:45.589Z,34.70
2019-06-07T10:21:15.845Z,31.63
2019-06-07T10:23:45.989Z,33.12
2019-06-07T10:26:16.408Z,34.48
2019-06-07T10:28:46.777Z,34.66
2019-06-07T10:31:16.636Z,31.20
2019-06-07T10:33:46.879Z,29.29
2019-06-07T10:36:17.070Z,33.23
2019-06-07T10:38:47.535Z,32.08
2019-06-07T10:41:17.596Z,32.10
2019-06-07T10:43:47.799Z,33.98
2019-06-07T10:46:18.064Z,31.65
2019-06-07T10:48:48.310Z,31.49
2019-06-07T10:51:18.504Z,31.71
2019-06-07T10:53:48.792Z,31.89
2019-06-07T10:56:19.013Z,30.51
2019-06-07T10:58:49.395Z,30.61
2019-06-07T11:01:19.509Z,29.82
2019-06-07T11:03:49.820Z,31.06
2019-06-07T11:06:20.020Z,27.69
2019-06-07T11:08:51.289Z,31.22
2019-06-07T11:11:20.673Z,31.87
2019-06-07T11:13:52.585Z,31.33
2019-06-07T11:16:22.069Z,31.93
2019-06-07T11:18:51.549Z,29.84
2019-06-07T11:21:21.565Z,31.25
2019-06-07T11:23:51.629Z,31.20
2019-06-07T11:26:21.737Z,29.85
2019-06-07T11:28:52.018Z,30.20
2019-06-07T11:31:22.146Z,31.49
2019-06-07T11:33:52.642Z,31.60
2019-06-07T11:36:22.443Z,30.40
2019-06-07T11:38:52.713Z,31.99
2019-06-07T11:41:22.927Z,31.74
2019-06-07T11:43:53.173Z,31.54
2019-06-07T11:46:23.356Z,32.84
2019-06-07T11:48:53.757Z,31.95
2019-06-07T11:51:23.957Z,33.68
2019-06-07T11:53:54.288Z,32.93
2019-06-07T11:56:24.386Z,31.51
2019-06-07T11:58:54.985Z,31.48
2019-06-07T12:01:24.953Z,29.48
2019-06-07T12:03:58.263Z,32.07
2019-06-07T12:06:26.319Z,30.75
2019-06-07T12:08:55.693Z,32.11
2019-06-07T12:11:26.211Z,32.41
2019-06-07T12:13:56.262Z,30.36
2019-06-07T12:16:26.743Z,29.32
2019-06-07T12:18:56.699Z,29.74
2019-06-07T12:21:26.888Z,29.06
2019-06-07T12:23:57.233Z,29.96
2019-06-07T12:26:26.921Z,30.29
2019-06-07T12:28:56.313Z,30.08
2019-06-07T12:31:25.777Z,30.13
2019-06-07T12:33:55.160Z,30.06
2019-06-07T12:36:24.625Z,31.52
2019-06-07T12:38:54.050Z,31.03
2019-06-07T12:41:23.436Z,29.29
2019-06-07T12:43:53.176Z,27.47
2019-06-07T12:46:27.966Z,29.01
2019-06-07T12:48:53.663Z,28.62
2019-06-07T12:51:23.484Z,30.52
2019-06-07T12:53:53.851Z,29.46
2019-06-07T12:56:24.232Z,30.50
2019-06-07T12:58:54.680Z,30.22
2019-06-07T13:01:24.876Z,30.57
2019-06-07T13:03:54.452Z,30.74
2019-06-07T13:06:23.791Z,30.95
2019-06-07T13:08:53.228Z,30.84
2019-06-07T13:11:28.190Z,32.46
2019-06-07T13:13:53.687Z,31.23
2019-06-07T13:16:24.248Z,33.46
2019-06-07T13:18:53.694Z,30.57
2019-06-07T13:21:24.500Z,30.89
2019-06-07T13:23:54.154Z,31.86
2019-06-07T13:26:24.925Z,29.77
2019-06-07T13:28:54.392Z,31.14
2019-06-07T13:31:25.125Z,29.57
2019-06-07T13:33:54.683Z,29.86
2019-06-07T13:36:24.447Z,30.85
2019-06-07T13:38:54.036Z,31.11
2019-06-07T13:41:36.553Z,31.94
2019-06-07T13:43:54.498Z,32.09
2019-06-07T13:46:25.176Z,30.58
2019-06-07T13:48:54.863Z,31.55
2019-06-07T13:51:25.192Z,33.04
2019-06-07T13:53:55.328Z,32.52
2019-06-07T13:56:25.931Z,30.97
2019-06-07T13:58:55.467Z,29.73
2019-06-07T14:01:24.843Z,29.68
2019-06-07T14:03:54.253Z,28.39
2019-06-07T14:06:25.147Z,29.34
2019-06-07T14:08:54.636Z,28.02
2019-06-07T14:11:24.021Z,29.48
2019-06-07T14:13:53.394Z,28.12
2019-06-07T14:16:24.279Z,28.72
2019-06-07T14:18:53.739Z,28.52
2019-06-07T14:21:24.505Z,28.04
2019-06-07T14:23:53.971Z,28.83
2019-06-07T14:26:23.619Z,29.39
2019-06-07T14:28:52.992Z,29.47
2019-06-07T14:31:22.391Z,29.72
2019-06-07T14:33:51.864Z,30.70
2019-06-07T14:36:22.622Z,31.93
2019-06-07T14:38:52.160Z,30.00
2019-06-07T14:41:23.108Z,30.79
2019-06-07T14:43:52.593Z,30.54
2019-06-07T14:46:21.988Z,28.59
2019-06-07T14:48:51.384Z,30.50
2019-06-07T14:51:20.775Z,30.74
2019-06-07T14:53:50.166Z,30.35
2019-06-07T14:56:19.683Z,29.65
2019-06-07T14:58:49.082Z,29.39
2019-06-07T15:01:18.464Z,29.53
2019-06-07T15:03:47.846Z,29.68
2019-06-07T15:06:18.218Z,30.17
2019-06-07T15:08:51.237Z,30.22
2019-06-07T15:11:18.656Z,28.62
2019-06-07T15:13:48.024Z,29.48
2019-06-07T15:16:17.452Z,29.15
2019-06-07T15:18:48.852Z,28.30
2019-06-07T15:21:18.237Z,29.32
2019-06-07T15:23:47.616Z,29.81
2019-06-07T15:26:17.005Z,28.84
2019-06-07T15:28:46.383Z,29.16
2019-06-07T15:31:15.756Z,29.33
2019-06-07T15:33:45.144Z,29.81
2019-06-07T15:36:15.119Z,29.22
2019-06-07T15:38:45.359Z,30.25
2019-06-07T15:41:15.597Z,29.40
2019-06-07T15:43:45.793Z,28.74
2019-06-07T15:46:16.096Z,28.71
2019-06-07T15:48:46.307Z,29.98
2019-06-07T15:51:16.643Z,29.58
2019-06-07T15:53:46.787Z,30.17
2019-06-07T15:56:17.267Z,29.79
2019-06-07T15:58:47.216Z,30.14
2019-06-07T16:01:17.584Z,30.17
2019-06-07T16:03:47.611Z,29.58
2019-06-07T16:06:19.671Z,30.07
2019-06-07T16:08:48.432Z,30.00
2019-06-07T16:11:18.327Z,30.19
2019-06-07T16:13:48.659Z,30.32
2019-06-07T16:16:18.951Z,30.65
2019-06-07T16:18:49.169Z,29.75
2019-06-07T16:21:19.544Z,29.33
2019-06-07T16:23:49.689Z,29.89
2019-06-07T16:26:19.893Z,30.45
2019-06-07T16:28:50.195Z,30.76
2019-06-07T16:31:20.419Z,29.24
2019-06-07T16:33:50.624Z,30.72
2019-06-07T16:36:20.948Z,30.73
2019-06-07T16:38:51.230Z,30.42
2019-06-07T16:41:21.449Z,30.37
2019-06-07T16:43:51.648Z,30.85
2019-06-07T16:46:23.256Z,31.72
2019-06-07T16:48:52.634Z,31.27
2019-06-07T16:54:01.050Z,31.39
2019-06-07T16:56:30.498Z,31.55
2019-06-07T16:58:59.962Z,31.92
2019-06-07T17:01:29.357Z,31.10
2019-06-07T17:03:58.747Z,31.11
2019-06-07T17:06:28.212Z,31.86
2019-06-07T17:08:57.589Z,32.33
2019-06-07T17:11:26.989Z,32.96
2019-06-07T17:13:56.368Z,31.98
2019-06-07T17:16:25.792Z,31.88
2019-06-07T17:18:55.172Z,32.21
2019-06-07T17:21:25.121Z,32.29
2019-06-07T17:23:55.472Z,33.03
2019-06-07T17:26:25.569Z,32.69
2019-06-07T17:28:55.783Z,32.85
2019-06-07T17:31:25.972Z,33.19
2019-06-07T17:33:56.043Z,32.05
2019-06-07T17:36:26.331Z,32.73
2019-06-07T17:38:56.445Z,33.01
2019-06-07T17:41:26.758Z,32.88
2019-06-07T17:44:00.291Z,33.13
2019-06-07T17:46:28.026Z,35.37
2019-06-07T17:48:57.422Z,34.39
2019-06-07T17:51:27.708Z,36.96
2019-06-07T17:53:57.682Z,40.62
2019-06-07T17:56:27.790Z,43.35
2019-06-07T17:58:58.152Z,43.51
2019-06-07T18:01:40.666Z,44.99
2019-06-07T18:03:59.274Z,43.71
2019-06-07T18:06:29.580Z,44.08
2019-06-07T18:09:00.203Z,46.12
2019-06-07T18:11:29.645Z,47.75
2019-06-07T18:14:10.012Z,48.95
2019-06-07T18:16:30.543Z,51.06
2019-06-07T18:18:59.931Z,50.02
2019-06-07T18:21:30.272Z,49.79
2019-06-07T18:24:00.227Z,48.18
2019-06-07T18:26:30.654Z,48.58
2019-06-07T18:29:00.803Z,49.66
2019-06-07T18:31:31.103Z,50.63
2019-06-07T18:34:01.492Z,50.55
2019-06-07T18:36:31.604Z,50.30
2019-06-07T18:39:01.753Z,50.88
2019-06-07T18:41:32.751Z,50.20
2019-06-07T18:44:02.250Z,50.62
2019-06-07T18:46:32.888Z,51.07
2019-06-07T18:49:02.663Z,50.78
2019-06-07T18:51:32.919Z,50.40
2019-06-07T18:54:03.167Z,50.80
2019-06-07T18:56:34.011Z,48.82
2019-06-07T18:59:03.764Z,48.28
2019-06-07T19:01:34.002Z,51.24
2019-06-07T19:04:04.293Z,50.38
2019-06-07T19:06:34.477Z,49.17
2019-06-07T19:09:06.056Z,49.29
2019-06-07T19:11:35.502Z,48.40
2019-06-07T19:14:06.913Z,49.24
2019-06-07T19:16:36.288Z,50.79
2019-06-07T19:19:05.798Z,51.88
2019-06-07T19:21:36.009Z,50.88
2019-06-07T19:24:06.165Z,48.31
2019-06-07T19:26:36.535Z,47.73
2019-06-07T19:29:06.732Z,50.04
2019-06-07T19:31:36.932Z,51.27
2019-06-07T19:34:07.168Z,50.52
2019-06-07T19:36:48.258Z,50.59
2019-06-07T19:39:08.728Z,50.95
2019-06-07T19:41:38.115Z,53.77
2019-06-07T19:44:08.194Z,54.03
2019-06-07T19:46:38.445Z,53.69
2019-06-07T19:49:08.604Z,52.68
2019-06-07T19:51:38.940Z,54.50
2019-06-07T19:54:10.150Z,55.35
2019-06-07T19:56:39.552Z,56.39
2019-06-07T19:59:09.677Z,56.81
2019-06-07T20:01:39.968Z,56.18
2019-06-07T20:04:10.194Z,56.12
2019-06-07T20:06:40.359Z,55.95
2019-06-07T20:09:10.375Z,55.83
2019-06-07T20:11:40.573Z,56.33
2019-06-07T20:14:10.818Z,55.04
2019-06-07T20:16:40.589Z,55.22
2019-06-07T20:19:10.760Z,55.39
2019-06-07T20:21:41.120Z,55.94
2019-06-07T20:24:24.730Z,57.02
2019-06-07T20:26:42.078Z,56.33
2019-06-07T20:29:25.600Z,54.21
2019-06-07T20:31:43.194Z,54.99
2019-06-07T20:34:13.619Z,55.60
2019-06-07T20:36:45.840Z,56.45
2019-06-07T20:39:14.102Z,55.37
2019-06-07T20:41:43.733Z,56.60
2019-06-07T20:44:13.828Z,56.83
2019-06-07T20:46:43.834Z,55.94
2019-06-07T20:49:14.050Z,56.71
2019-06-07T20:51:44.321Z,58.67
2019-06-07T20:54:14.825Z,57.76
2019-06-07T20:56:44.770Z,58.34
2019-06-07T20:59:15.011Z,58.17
2019-06-07T21:01:45.315Z,57.32
2019-06-07T21:04:15.418Z,57.60
2019-06-07T21:06:45.548Z,58.03
2019-06-07T21:09:15.644Z,57.17
2019-06-07T21:11:45.926Z,56.66
2019-06-07T21:14:15.954Z,57.99
2019-06-07T21:16:46.328Z,59.38
2019-06-07T21:19:16.559Z,59.53
2019-06-07T21:21:46.785Z,59.80
2019-06-07T21:24:17.045Z,60.00
2019-06-07T21:26:47.356Z,59.51
2019-06-07T21:29:17.533Z,59.88
2019-06-07T21:31:48.052Z,60.53
2019-06-07T21:34:17.954Z,60.38
2019-06-07T21:36:48.418Z,61.71
2019-06-07T21:39:18.401Z,62.24
2019-06-07T21:41:48.698Z,61.83
2019-06-07T21:44:18.867Z,61.27
2019-06-07T21:46:49.185Z,61.37
2019-06-07T21:49:19.361Z,60.84
2019-06-07T21:51:49.709Z,60.03
2019-06-07T21:54:19.822Z,61.44
2019-06-07T21:56:50.281Z,61.33
2019-06-07T21:59:20.367Z,59.99
2019-06-07T22:01:51.076Z,60.60
2019-06-07T22:04:20.899Z,60.18
2019-06-07T22:06:51.972Z,59.15
2019-06-07T22:09:22.216Z,60.11
2019-06-07T22:11:51.664Z,60.11
2019-06-07T22:14:21.894Z,60.74
2019-06-07T22:16:52.168Z,59.74
2019-06-07T22:19:22.424Z,59.25
2019-06-07T22:22:02.099Z,60.58
2019-06-07T22:24:23.884Z,61.16
2019-06-07T22:26:53.278Z,60.00
2019-06-07T22:29:23.407Z,60.64
2019-06-07T22:31:53.763Z,60.99
2019-06-07T22:34:23.976Z,61.54
2019-06-07T22:36:54.249Z,62.32
2019-06-07T22:39:24.509Z,62.29
2019-06-07T22:41:54.722Z,62.66
2019-06-07T22:44:24.894Z,63.24
2019-06-07T22:46:55.261Z,62.68
2019-06-07T22:49:25.490Z,62.85
2019-06-07T22:52:08.224Z,62.66
2019-06-07T22:54:26.819Z,63.30
2019-06-07T22:57:00.567Z,63.05
2019-06-07T22:59:30.971Z,60.88
2019-06-07T23:02:00.349Z,62.15
2019-06-07T23:04:29.835Z,62.81
2019-06-07T23:06:59.216Z,63.49
2019-06-07T23:09:28.605Z,64.54
2019-06-07T23:11:57.982Z,63.59
2019-06-07T23:14:27.970Z,65.30
2019-06-07T23:16:58.273Z,64.66
2019-06-07T23:19:28.431Z,64.15
2019-06-07T23:21:58.774Z,65.78
2019-06-07T23:24:29.098Z,65.11
2019-06-07T23:26:59.328Z,65.37
2019-06-07T23:29:29.570Z,61.80
2019-06-07T23:31:59.911Z,63.74
2019-06-07T23:34:29.992Z,65.94
2019-06-07T23:37:00.424Z,65.09
2019-06-07T23:39:30.585Z,65.51
2019-06-07T23:42:00.717Z,62.98
2019-06-07T23:44:30.814Z,64.25
2019-06-07T23:47:10.821Z,63.21
2019-06-07T23:49:32.671Z,63.03
2019-06-07T23:52:02.070Z,60.85
2019-06-07T23:54:31.733Z,63.34
2019-06-07T23:57:02.123Z,62.24
2019-06-07T23:59:32.390Z,63.11
